createdAt,value
2022-08-05T00:00:18.712Z,23.00
2022-08-05T00:02:50.557Z,23.00
2022-08-05T00:05:27.184Z,23.00
2022-08-05T00:08:32.761Z,23.00
2022-08-05T00:11:00.288Z,23.00
2022-08-05T00:13:39.969Z,22.90
2022-08-05T00:16:12.971Z,22.90
2022-08-05T00:18:45.174Z,22.80
2022-08-05T00:21:14.534Z,22.80
2022-08-05T00:23:46.122Z,22.80
2022-08-05T00:26:16.497Z,22.70
2022-08-05T00:28:44.225Z,22.80
2022-08-05T00:31:13.933Z,22.70
2022-08-05T00:34:53.354Z,22.70
2022-08-05T00:37:12.816Z,22.70
2022-08-05T00:39:15.625Z,22.60
2022-08-05T00:41:55.135Z,22.60
2022-08-05T00:44:30.886Z,22.60
2022-08-05T00:47:02.245Z,22.60
2022-08-05T00:49:51.094Z,22.60
2022-08-05T00:52:28.812Z,22.50
2022-08-05T00:54:56.533Z,22.50
2022-08-05T00:57:25.265Z,22.50
2022-08-05T00:59:58.819Z,22.40
2022-08-05T01:02:25.940Z,22.40
2022-08-05T01:04:53.038Z,22.40
2022-08-05T01:07:20.184Z,22.40
2022-08-05T01:09:55.715Z,22.40
2022-08-05T01:12:25.291Z,22.30
2022-08-05T01:15:06.270Z,22.30
2022-08-05T01:18:00.374Z,22.30
2022-08-05T01:20:36.717Z,22.20
2022-08-05T01:23:15.147Z,22.20
2022-08-05T01:26:20.150Z,22.20
2022-08-05T01:29:05.199Z,22.20
2022-08-05T01:31:49.136Z,22.20
2022-08-05T01:34:27.129Z,22.20
2022-08-05T01:37:03.201Z,22.10
2022-08-05T01:39:46.777Z,22.10
2022-08-05T01:42:19.572Z,22.10
2022-08-05T01:44:54.193Z,22.10
2022-08-05T01:47:24.645Z,22.10
2022-08-05T01:50:15.231Z,22.00
2022-08-05T01:52:49.984Z,22.00
2022-08-05T01:55:20.771Z,22.00
2022-08-05T01:58:12.157Z,22.00
2022-08-05T02:00:40.966Z,22.00
2022-08-05T02:03:29.180Z,21.90
2022-08-05T02:06:33.223Z,22.00
2022-08-05T02:08:57.950Z,21.90
2022-08-05T02:11:33.416Z,21.90
2022-08-05T02:14:12.414Z,21.90
2022-08-05T02:16:52.927Z,21.90
2022-08-05T02:19:47.279Z,21.90
2022-08-05T02:22:31.759Z,21.80
2022-08-05T02:25:06.343Z,21.80
2022-08-05T02:27:58.009Z,21.80
2022-08-05T02:30:28.004Z,21.70
2022-08-05T02:32:59.468Z,21.70
2022-08-05T02:35:33.410Z,21.70
2022-08-05T02:38:09.154Z,21.70
2022-08-05T02:40:38.831Z,21.70
2022-08-05T02:43:07.270Z,21.70
2022-08-05T02:45:52.752Z,21.60
2022-08-05T02:48:29.410Z,21.60
2022-08-05T02:51:02.849Z,21.60
2022-08-05T02:53:39.056Z,21.60
2022-08-05T02:56:08.861Z,21.60
2022-08-05T02:58:43.602Z,21.60
2022-08-05T03:01:17.159Z,21.60
2022-08-05T03:04:03.158Z,21.50
2022-08-05T03:06:55.443Z,21.50
2022-08-05T03:09:36.423Z,21.50
2022-08-05T03:12:06.683Z,21.50
2022-08-05T03:14:40.903Z,21.50
2022-08-05T03:17:13.420Z,21.50
2022-08-05T03:19:41.803Z,21.50
2022-08-05T03:22:16.790Z,21.40
2022-08-05T03:24:49.601Z,21.40
2022-08-05T03:27:20.707Z,21.40
2022-08-05T03:30:08.432Z,21.40
2022-08-05T03:32:36.108Z,21.40
2022-08-05T03:35:04.573Z,21.40
2022-08-05T03:37:46.427Z,21.30
2022-08-05T03:40:15.456Z,21.30
2022-08-05T03:42:58.298Z,21.30
2022-08-05T03:45:25.488Z,21.30
2022-08-05T03:47:57.097Z,21.30
2022-08-05T03:50:42.846Z,21.30
2022-08-05T03:55:50.505Z,21.30
2022-08-05T03:56:30.583Z,21.20
2022-08-05T03:59:04.019Z,21.20
2022-08-05T04:01:37.000Z,21.20
2022-08-05T04:04:10.640Z,21.20
2022-08-05T04:06:47.365Z,21.10
2022-08-05T04:09:26.108Z,21.10
2022-08-05T04:11:56.686Z,21.10
2022-08-05T04:14:29.585Z,21.10
2022-08-05T04:16:59.692Z,21.10
2022-08-05T04:19:28.862Z,21.10
2022-08-05T04:22:08.896Z,21.00
2022-08-05T04:24:52.759Z,21.00
2022-08-05T04:27:41.893Z,21.00
2022-08-05T04:30:09.225Z,21.00
2022-08-05T04:32:36.616Z,21.00
2022-08-05T04:35:05.765Z,21.00
2022-08-05T04:38:02.852Z,20.90
2022-08-05T04:40:20.491Z,20.90
2022-08-05T04:42:47.617Z,20.90
2022-08-05T04:45:23.063Z,20.90
2022-08-05T04:48:06.364Z,20.90
2022-08-05T04:51:03.138Z,20.90
2022-08-05T04:53:33.540Z,20.90
2022-08-05T04:56:32.790Z,20.80
2022-08-05T04:58:50.419Z,20.80
2022-08-05T05:02:06.371Z,20.80
2022-08-05T05:04:05.538Z,20.80
2022-08-05T05:06:39.350Z,20.80
2022-08-05T05:09:17.265Z,20.80
2022-08-05T05:11:55.597Z,20.80
2022-08-05T05:14:28.091Z,20.80
2022-08-05T05:17:00.279Z,20.70
2022-08-05T05:19:36.312Z,20.70
2022-08-05T05:22:24.576Z,20.70
2022-08-05T05:24:57.214Z,20.70
2022-08-05T05:27:44.499Z,20.70
2022-08-05T05:30:29.624Z,20.70
2022-08-05T05:33:00.825Z,20.70
2022-08-05T05:35:37.691Z,20.70
2022-08-05T05:38:09.260Z,20.70
2022-08-05T05:40:47.928Z,20.60
2022-08-05T05:43:27.693Z,20.70
2022-08-05T05:46:05.254Z,20.70
2022-08-05T05:48:34.778Z,20.60
2022-08-05T05:51:15.061Z,20.60
2022-08-05T05:53:54.423Z,20.60
2022-08-05T05:56:31.636Z,20.70
2022-08-05T05:59:08.060Z,20.60
2022-08-05T06:01:38.920Z,20.70
2022-08-05T06:04:11.409Z,20.60
2022-08-05T06:06:39.370Z,20.60
2022-08-05T06:09:09.477Z,20.60
2022-08-05T06:11:59.177Z,20.60
2022-08-05T06:14:28.826Z,20.70
2022-08-05T06:16:56.824Z,20.70
2022-08-05T06:19:35.051Z,20.70
2022-08-05T06:22:07.321Z,20.70
2022-08-05T06:24:41.469Z,20.70
2022-08-05T06:28:09.432Z,20.70
2022-08-05T06:30:16.870Z,20.70
2022-08-05T06:32:48.134Z,20.70
2022-08-05T06:36:04.190Z,20.80
2022-08-05T06:38:11.202Z,20.70
2022-08-05T06:40:42.047Z,20.70
2022-08-05T06:43:59.786Z,20.70
2022-08-05T06:46:06.622Z,20.70
2022-08-05T06:48:53.113Z,20.70
2022-08-05T06:51:29.892Z,20.70
2022-08-05T06:54:03.104Z,20.70
2022-08-05T06:56:34.584Z,20.70
2022-08-05T06:59:09.447Z,20.70
2022-08-05T07:01:40.657Z,20.60
2022-08-05T07:04:09.787Z,20.70
2022-08-05T07:06:37.350Z,20.60
2022-08-05T07:09:05.299Z,20.60
2022-08-05T07:11:37.203Z,20.60
2022-08-05T07:14:29.269Z,20.60
2022-08-05T07:17:59.115Z,20.60
2022-08-05T07:22:42.007Z,20.60
2022-08-05T07:25:54.189Z,20.60
2022-08-05T07:28:02.321Z,20.60
2022-08-05T07:30:34.619Z,20.70
2022-08-05T07:33:10.029Z,20.60
2022-08-05T07:36:04.400Z,20.60
2022-08-05T07:38:33.312Z,20.60
2022-08-05T07:42:06.944Z,20.60
2022-08-05T07:43:59.778Z,20.60
2022-08-05T07:46:28.922Z,20.60
2022-08-05T07:49:01.878Z,20.60
2022-08-05T07:51:40.835Z,20.60
2022-08-05T07:54:23.173Z,20.60
2022-08-05T07:57:02.740Z,20.60
2022-08-05T07:59:40.383Z,20.60
2022-08-05T08:02:16.840Z,20.60
2022-08-05T08:04:47.413Z,20.60
2022-08-05T08:07:22.078Z,20.60
2022-08-05T08:09:52.326Z,20.60
2022-08-05T08:12:35.210Z,20.60
2022-08-05T08:15:15.725Z,20.70
2022-08-05T08:17:52.901Z,20.60
2022-08-05T08:20:59.994Z,20.60
2022-08-05T08:23:11.730Z,20.70
2022-08-05T08:25:59.008Z,20.60
2022-08-05T08:28:37.016Z,20.60
2022-08-05T08:31:10.057Z,20.60
2022-08-05T08:33:42.400Z,20.60
2022-08-05T08:36:38.691Z,20.70
2022-08-05T08:38:58.220Z,20.70
2022-08-05T08:41:52.345Z,20.70
2022-08-05T08:45:16.860Z,20.80
2022-08-05T08:47:21.853Z,20.80
2022-08-05T08:50:29.789Z,20.80
2022-08-05T08:53:01.178Z,20.80
2022-08-05T08:55:32.140Z,20.80
2022-08-05T08:58:17.442Z,20.90
2022-08-05T09:00:45.270Z,20.90
2022-08-05T09:03:16.281Z,20.90
2022-08-05T09:06:08.544Z,21.00
2022-08-05T09:08:34.820Z,21.00
2022-08-05T09:11:02.779Z,21.00
2022-08-05T09:13:31.461Z,21.10
2022-08-05T09:15:59.722Z,21.10
2022-08-05T09:18:27.456Z,21.10
2022-08-05T09:20:54.799Z,21.10
2022-08-05T09:23:23.450Z,21.00
2022-08-05T09:26:08.537Z,21.00
2022-08-05T09:28:39.141Z,21.00
2022-08-05T09:31:43.269Z,21.00
2022-08-05T09:34:13.014Z,21.00
2022-08-05T09:36:54.430Z,21.00
2022-08-05T09:39:39.518Z,21.00
2022-08-05T09:42:13.603Z,21.00
2022-08-05T09:44:51.839Z,21.00
2022-08-05T09:47:23.502Z,21.00
2022-08-05T09:50:01.267Z,21.00
2022-08-05T09:52:35.098Z,21.10
2022-08-05T09:55:56.749Z,21.10
2022-08-05T09:57:54.673Z,21.10
2022-08-05T10:00:30.634Z,21.10
2022-08-05T10:02:59.185Z,21.20
2022-08-05T10:05:28.878Z,21.20
2022-08-05T10:08:36.481Z,21.20
2022-08-05T10:10:54.898Z,21.20
2022-08-05T10:13:47.586Z,21.20
2022-08-05T10:16:37.759Z,21.20
2022-08-05T10:19:11.733Z,21.20
2022-08-05T10:21:40.906Z,21.20
2022-08-05T10:24:13.794Z,21.20
2022-08-05T10:26:51.718Z,21.20
2022-08-05T10:29:23.709Z,21.20
2022-08-05T10:32:54.224Z,21.20
2022-08-05T10:34:40.921Z,21.20
2022-08-05T10:37:08.692Z,21.20
2022-08-05T10:39:59.018Z,21.20
2022-08-05T10:42:32.487Z,21.20
2022-08-05T10:45:02.290Z,21.20
2022-08-05T10:48:30.360Z,21.20
2022-08-05T10:50:59.876Z,21.10
2022-08-05T10:53:38.948Z,21.10
2022-08-05T10:56:25.935Z,21.20
2022-08-05T10:58:53.334Z,21.10
2022-08-05T11:02:02.814Z,21.10
2022-08-05T11:04:31.662Z,21.10
2022-08-05T11:07:04.488Z,21.10
2022-08-05T11:09:46.176Z,21.10
2022-08-05T11:12:26.633Z,21.10
2022-08-05T11:15:19.161Z,21.20
2022-08-05T11:17:59.782Z,21.20
2022-08-05T11:20:48.464Z,21.20
2022-08-05T11:24:04.296Z,21.30
2022-08-05T11:26:28.610Z,21.30
2022-08-05T11:29:11.778Z,21.40
2022-08-05T11:31:58.293Z,21.40
2022-08-05T11:34:51.372Z,21.40
2022-08-05T11:38:30.245Z,21.50
2022-08-05T11:41:00.866Z,21.50
2022-08-05T11:44:01.021Z,21.50
2022-08-05T11:46:32.702Z,21.60
2022-08-05T11:49:03.208Z,21.60
2022-08-05T11:51:44.616Z,21.60
2022-08-05T11:54:54.830Z,21.60
2022-08-05T11:57:30.636Z,21.60
2022-08-05T12:00:31.918Z,21.60
2022-08-05T12:03:28.695Z,21.60
2022-08-05T12:06:03.271Z,21.60
2022-08-05T12:08:39.462Z,21.60
2022-08-05T12:11:39.748Z,21.60
2022-08-05T12:14:10.239Z,21.60
2022-08-05T12:16:39.797Z,21.60
2022-08-05T12:19:08.945Z,21.60
2022-08-05T12:22:09.709Z,21.70
2022-08-05T12:24:49.692Z,21.70
2022-08-05T12:27:35.832Z,21.80
2022-08-05T12:30:22.475Z,21.80
2022-08-05T12:33:07.105Z,21.90
2022-08-05T12:35:46.016Z,21.90
2022-08-05T12:38:15.325Z,21.90
2022-08-05T12:40:43.539Z,21.90
2022-08-05T12:43:11.839Z,21.90
2022-08-05T12:45:55.623Z,21.90
2022-08-05T12:48:32.473Z,21.90
2022-08-05T12:52:10.156Z,21.80
2022-08-05T12:54:03.200Z,21.90
2022-08-05T12:56:35.114Z,21.80
2022-08-05T12:59:27.491Z,21.80
2022-08-05T13:02:07.061Z,21.80
2022-08-05T13:04:41.715Z,21.80
2022-08-05T13:07:55.926Z,21.80
2022-08-05T13:10:19.761Z,21.80
2022-08-05T13:12:58.061Z,21.80
2022-08-05T13:15:41.529Z,21.80
2022-08-05T13:18:20.536Z,21.80
2022-08-05T13:20:49.833Z,21.90
2022-08-05T13:23:22.455Z,21.90
2022-08-05T13:25:59.380Z,21.90
2022-08-05T13:28:29.042Z,21.90
2022-08-05T13:30:57.081Z,21.90
2022-08-05T13:34:21.194Z,21.90
2022-08-05T13:36:14.466Z,21.90
2022-08-05T13:38:42.921Z,21.80
2022-08-05T13:41:11.746Z,21.80
2022-08-05T13:43:44.047Z,21.80
2022-08-05T13:46:13.929Z,21.80
2022-08-05T13:48:58.774Z,21.80
2022-08-05T13:51:40.403Z,21.80
2022-08-05T13:54:13.641Z,21.80
2022-08-05T13:56:44.909Z,21.80
2022-08-05T13:59:20.116Z,21.80
2022-08-05T14:01:57.555Z,21.80
2022-08-05T14:04:55.887Z,21.80
2022-08-05T14:08:00.303Z,21.80
2022-08-05T14:10:28.678Z,21.80
2022-08-05T14:12:58.650Z,21.80
2022-08-05T14:16:08.274Z,21.80
2022-08-05T14:18:18.625Z,21.90
2022-08-05T14:20:54.989Z,21.90
2022-08-05T14:23:25.913Z,21.90
2022-08-05T14:25:58.382Z,21.90
2022-08-05T14:28:30.039Z,21.90
2022-08-05T14:30:58.692Z,21.90
2022-08-05T14:33:25.955Z,21.90
2022-08-05T14:35:54.243Z,21.90
2022-08-05T14:38:31.662Z,21.90
2022-08-05T14:41:07.419Z,21.90
2022-08-05T14:44:02.134Z,21.90
2022-08-05T14:46:28.777Z,21.90
2022-08-05T14:48:59.462Z,21.90
2022-08-05T14:51:31.288Z,21.80
2022-08-05T14:54:26.819Z,21.80
2022-08-05T14:56:49.027Z,21.80
2022-08-05T14:59:18.577Z,21.80
2022-08-05T15:01:49.793Z,21.90
2022-08-05T15:04:22.462Z,21.90
2022-08-05T15:06:53.512Z,21.90
2022-08-05T15:09:53.871Z,21.90
2022-08-05T15:12:11.429Z,21.80
2022-08-05T15:14:48.415Z,21.90
2022-08-05T15:17:47.303Z,21.90
2022-08-05T15:20:08.934Z,21.80
2022-08-05T15:22:40.048Z,21.80
2022-08-05T15:25:14.066Z,21.80
2022-08-05T15:27:43.058Z,21.80
2022-08-05T15:30:19.472Z,21.80
2022-08-05T15:32:46.972Z,21.80
2022-08-05T15:35:14.845Z,21.80
2022-08-05T15:38:33.159Z,21.70
2022-08-05T15:40:59.658Z,21.70
2022-08-05T15:43:20.443Z,21.70
2022-08-05T15:46:00.205Z,21.70
2022-08-05T15:48:30.062Z,21.70
2022-08-05T15:50:59.839Z,21.70
2022-08-05T15:53:38.453Z,21.60
2022-08-05T15:56:17.570Z,21.70
2022-08-05T15:58:45.054Z,21.60
2022-08-05T16:01:16.241Z,21.60
2022-08-05T16:03:50.463Z,21.60
2022-08-05T16:06:20.141Z,21.60
2022-08-05T16:08:51.051Z,21.60
2022-08-05T16:11:40.150Z,21.60
2022-08-05T16:14:07.976Z,21.50
2022-08-05T16:16:36.568Z,21.50
2022-08-05T16:19:04.644Z,21.50
2022-08-05T16:22:00.854Z,21.50
2022-08-05T16:24:40.143Z,21.50
2022-08-05T16:27:07.400Z,21.50
2022-08-05T16:29:37.323Z,21.40
2022-08-05T16:32:09.641Z,21.40
2022-08-05T16:34:39.414Z,21.40
2022-08-05T16:38:16.174Z,21.30
2022-08-05T16:40:06.117Z,21.30
2022-08-05T16:42:35.703Z,21.30
2022-08-05T16:45:05.941Z,21.30
2022-08-05T16:47:55.622Z,21.30
2022-08-05T16:50:25.774Z,21.30
2022-08-05T16:52:52.904Z,21.30
2022-08-05T16:55:24.526Z,21.30
2022-08-05T16:57:53.404Z,21.30
2022-08-05T17:00:35.011Z,21.30
2022-08-05T17:03:15.233Z,21.20
2022-08-05T17:05:51.859Z,21.20
2022-08-05T17:08:35.721Z,21.20
2022-08-05T17:11:12.564Z,21.20
2022-08-05T17:13:43.729Z,21.20
2022-08-05T17:16:37.214Z,21.10
2022-08-05T17:18:58.185Z,21.10
2022-08-05T17:21:25.414Z,21.10
2022-08-05T17:24:14.287Z,21.10
2022-08-05T17:26:47.682Z,21.10
2022-08-05T17:29:15.031Z,21.10
2022-08-05T17:31:58.246Z,21.00
2022-08-05T17:38:31.936Z,21.00
2022-08-05T17:40:59.483Z,21.00
2022-08-05T17:43:50.651Z,21.00
2022-08-05T17:46:13.855Z,21.00
2022-08-05T17:48:43.232Z,21.00
2022-08-05T17:51:12.000Z,21.00
2022-08-05T17:53:39.970Z,21.00
2022-08-05T17:56:09.661Z,21.00
2022-08-05T17:58:37.908Z,21.00
2022-08-05T18:01:08.225Z,21.00
2022-08-05T18:03:59.596Z,21.00
2022-08-05T18:06:29.225Z,21.00
2022-08-05T18:08:58.345Z,20.90
2022-08-05T18:11:32.554Z,20.90
2022-08-05T18:14:03.525Z,20.90
2022-08-05T18:16:32.143Z,20.90
2022-08-05T18:18:59.547Z,20.90
2022-08-05T18:21:28.215Z,20.80
2022-08-05T18:24:15.192Z,20.80
2022-08-05T18:26:43.924Z,20.80
2022-08-05T18:29:11.362Z,20.80
2022-08-05T18:31:43.177Z,20.80
2022-08-05T18:34:12.667Z,20.80
2022-08-05T18:36:40.009Z,20.70
2022-08-05T18:39:22.622Z,20.70
2022-08-05T18:42:03.566Z,20.70
2022-08-05T18:44:49.417Z,20.70
2022-08-05T18:47:22.869Z,20.60
2022-08-05T18:50:12.971Z,20.60
2022-08-05T18:52:51.425Z,20.70
2022-08-05T18:55:21.711Z,20.60
2022-08-05T18:57:54.011Z,20.60
2022-08-05T19:00:30.263Z,20.60
2022-08-05T19:03:04.251Z,20.50
2022-08-05T19:06:12.802Z,20.50
2022-08-05T19:08:21.521Z,20.50
2022-08-05T19:10:50.115Z,20.50
2022-08-05T19:13:18.042Z,20.50
2022-08-05T19:15:59.958Z,20.40
2022-08-05T19:18:30.501Z,20.50
2022-08-05T19:20:59.759Z,20.40
2022-08-05T19:24:06.907Z,20.40
2022-08-05T19:26:14.753Z,20.30
2022-08-05T19:28:44.018Z,20.30
2022-08-05T19:31:14.994Z,20.30
2022-08-05T19:33:48.453Z,20.30
2022-08-05T19:36:26.053Z,20.30
2022-08-05T19:39:00.565Z,20.30
2022-08-05T19:42:05.756Z,20.20
2022-08-05T19:44:18.463Z,20.20
2022-08-05T19:46:45.947Z,20.20
2022-08-05T19:49:17.189Z,20.20
2022-08-05T19:52:08.607Z,20.10
2022-08-05T19:54:34.856Z,20.10
2022-08-05T19:57:09.281Z,20.10
2022-08-05T19:59:56.618Z,20.00
2022-08-05T20:02:27.260Z,20.10
2022-08-05T20:04:58.510Z,20.00
2022-08-05T20:07:46.699Z,20.00
2022-08-05T20:10:17.339Z,19.90
2022-08-05T20:12:49.324Z,19.90
2022-08-05T20:15:48.156Z,19.90
2022-08-05T20:18:10.837Z,19.90
2022-08-05T20:20:56.625Z,19.80
2022-08-05T20:23:39.988Z,19.80
2022-08-05T20:26:16.391Z,19.80
2022-08-05T20:28:50.655Z,19.80
2022-08-05T20:31:21.561Z,19.80
2022-08-05T20:33:51.050Z,19.70
2022-08-05T20:36:19.249Z,19.70
2022-08-05T20:38:53.686Z,19.70
2022-08-05T20:41:27.018Z,19.60
2022-08-05T20:43:59.208Z,19.60
2022-08-05T20:46:28.818Z,19.60
2022-08-05T20:48:56.159Z,19.60
2022-08-05T20:51:23.769Z,19.60
2022-08-05T20:53:56.184Z,19.50
2022-08-05T20:56:29.944Z,19.50
2022-08-05T20:59:00.000Z,19.50
2022-08-05T21:01:41.988Z,19.50
2022-08-05T21:04:10.831Z,19.40
2022-08-05T21:06:45.306Z,19.40
2022-08-05T21:09:15.060Z,19.40
2022-08-05T21:12:07.499Z,19.40
2022-08-05T21:14:34.921Z,19.30
2022-08-05T21:17:05.213Z,19.30
2022-08-05T21:19:46.584Z,19.20
2022-08-05T21:22:17.814Z,19.10
2022-08-05T21:24:49.063Z,19.10
2022-08-05T21:27:24.652Z,19.10
2022-08-05T21:29:54.172Z,19.10
2022-08-05T21:32:26.653Z,19.10
2022-08-05T21:35:16.806Z,19.10
2022-08-05T21:37:47.313Z,19.10
2022-08-05T21:40:20.159Z,19.00
2022-08-05T21:42:47.769Z,19.00
2022-08-05T21:45:24.802Z,19.00
2022-08-05T21:48:06.351Z,18.90
2022-08-05T21:50:35.124Z,18.90
2022-08-05T21:53:17.544Z,18.90
2022-08-05T21:56:06.397Z,18.90
2022-08-05T21:58:32.683Z,18.80
2022-08-05T22:01:00.369Z,18.80
2022-08-05T22:03:51.735Z,18.80
2022-08-05T22:06:16.357Z,18.80
2022-08-05T22:08:52.125Z,18.80
2022-08-05T22:11:34.693Z,18.70
2022-08-05T22:14:06.532Z,18.70
2022-08-05T22:16:56.014Z,18.70
2022-08-05T22:20:02.641Z,18.70
2022-08-05T22:22:12.297Z,18.60
2022-08-05T22:25:00.240Z,18.60
2022-08-05T22:28:08.999Z,18.60
2022-08-05T22:30:35.784Z,18.50
2022-08-05T22:33:15.865Z,18.50
2022-08-05T22:35:48.899Z,18.50
2022-08-05T22:38:17.345Z,18.50
2022-08-05T22:40:49.504Z,18.40
2022-08-05T22:43:36.280Z,18.40
2022-08-05T22:46:13.076Z,18.40
2022-08-05T22:48:50.767Z,18.40
2022-08-05T22:51:22.851Z,18.30
2022-08-05T22:53:57.064Z,18.30
2022-08-05T22:56:30.370Z,18.30
2022-08-05T22:59:02.766Z,18.30
2022-08-05T23:02:03.792Z,18.30
2022-08-05T23:04:19.059Z,18.20
2022-08-05T23:06:47.888Z,18.20
2022-08-05T23:09:27.881Z,18.20
2022-08-05T23:12:02.905Z,18.20
2022-08-05T23:14:32.363Z,18.20
2022-08-05T23:17:24.459Z,18.10
2022-08-05T23:20:02.410Z,18.10
2022-08-05T23:22:30.818Z,18.00
2022-08-05T23:24:58.320Z,18.00
2022-08-05T23:27:28.947Z,18.00
2022-08-05T23:30:10.652Z,18.00
2022-08-05T23:32:40.710Z,18.00
2022-08-05T23:35:12.431Z,17.90
2022-08-05T23:37:39.736Z,17.90
2022-08-05T23:40:09.505Z,17.90
2022-08-05T23:42:40.931Z,17.90
2022-08-05T23:45:15.700Z,17.90
2022-08-05T23:47:47.935Z,17.80
2022-08-05T23:50:17.074Z,17.80
2022-08-05T23:52:49.829Z,17.80
2022-08-05T23:55:19.213Z,17.70
2022-08-05T23:57:49.019Z,17.70
